sensor_id;sensor_type;location;lat;lon;timestamp;pressure;altitude;pressure_sealevel;temperature;humidity
53514;BME280;39768;54.148;12.174;2022-12-18T00:02:01;102911.16;;;-5.57;100.00
53514;BME280;39768;54.148;12.174;2022-12-18T00:06:02;102912.69;;;-5.59;100.00
53514;BME280;39768;54.148;12.174;2022-12-18T00:10:04;102909.84;;;-5.62;100.00
53514;BME280;39768;54.148;12.174;2022-12-18T00:14:06;102909.72;;;-5.63;100.00
53514;BME280;39768;54.148;12.174;2022-12-18T00:18:08;102917.66;;;-5.52;100.00
53514;BME280;39768;54.148;12.174;2022-12-18T00:22:10;102918.16;;;-5.56;100.00
53514;BME280;39768;54.148;12.174;2022-12-18T00:26:18;102918.69;;;-5.50;100.00
53514;BME280;39768;54.148;12.174;2022-12-18T00:30:20;102928.00;;;-5.52;100.00
53514;BME280;39768;54.148;12.174;2022-12-18T00:34:21;102933.44;;;-5.39;100.00
53514;BME280;39768;54.148;12.174;2022-12-18T00:38:23;102924.78;;;-5.49;100.00
53514;BME280;39768;54.148;12.174;2022-12-18T00:42:25;102932.22;;;-5.73;100.00
53514;BME280;39768;54.148;12.174;2022-12-18T00:46:46;102933.31;;;-5.50;100.00
53514;BME280;39768;54.148;12.174;2022-12-18T00:50:49;102932.13;;;-5.54;100.00
53514;BME280;39768;54.148;12.174;2022-12-18T00:54:50;102928.13;;;-5.50;100.00
53514;BME280;39768;54.148;12.174;2022-12-18T00:58:52;102923.25;;;-5.86;100.00
53514;BME280;39768;54.148;12.174;2022-12-18T01:02:53;102932.09;;;-5.74;100.00
53514;BME280;39768;54.148;12.174;2022-12-18T01:06:55;102933.91;;;-5.63;100.00
53514;BME280;39768;54.148;12.174;2022-12-18T01:10:56;102938.59;;;-5.59;100.00
53514;BME280;39768;54.148;12.174;2022-12-18T01:14:59;102941.94;;;-5.60;100.00
53514;BME280;39768;54.148;12.174;2022-12-18T01:19:00;102958.78;;;-5.65;100.00
53514;BME280;39768;54.148;12.174;2022-12-18T01:23:02;102968.72;;;-5.59;100.00
53514;BME280;39768;54.148;12.174;2022-12-18T01:27:03;102974.03;;;-5.58;100.00
53514;BME280;39768;54.148;12.174;2022-12-18T01:31:23;102976.97;;;-5.63;100.00
53514;BME280;39768;54.148;12.174;2022-12-18T01:35:25;102965.81;;;-5.93;100.00
53514;BME280;39768;54.148;12.174;2022-12-18T01:39:27;102972.56;;;-5.95;100.00
53514;BME280;39768;54.148;12.174;2022-12-18T01:43:55;102972.03;;;-5.91;100.00
53514;BME280;39768;54.148;12.174;2022-12-18T01:48:01;102974.59;;;-5.91;100.00
53514;BME280;39768;54.148;12.174;2022-12-18T01:52:03;102966.16;;;-6.09;100.00
53514;BME280;39768;54.148;12.174;2022-12-18T01:56:05;102964.06;;;-6.13;100.00
53514;BME280;39768;54.148;12.174;2022-12-18T02:00:13;102964.38;;;-5.99;100.00
53514;BME280;39768;54.148;12.174;2022-12-18T02:04:23;102972.97;;;-5.80;100.00
53514;BME280;39768;54.148;12.174;2022-12-18T02:08:38;102975.00;;;-5.96;100.00
53514;BME280;39768;54.148;12.174;2022-12-18T02:12:48;102971.09;;;-6.01;100.00
53514;BME280;39768;54.148;12.174;2022-12-18T02:17:01;102962.97;;;-5.76;100.00
53514;BME280;39768;54.148;12.174;2022-12-18T02:21:12;102946.94;;;-5.82;100.00
53514;BME280;39768;54.148;12.174;2022-12-18T02:29:48;102946.97;;;-5.72;100.00
53514;BME280;39768;54.148;12.174;2022-12-18T02:34:02;102939.06;;;-5.83;100.00
53514;BME280;39768;54.148;12.174;2022-12-18T02:38:11;102949.69;;;-5.70;100.00
53514;BME280;39768;54.148;12.174;2022-12-18T02:42:16;102970.31;;;-5.51;100.00
53514;BME280;39768;54.148;12.174;2022-12-18T02:46:45;102966.00;;;-5.61;100.00
53514;BME280;39768;54.148;12.174;2022-12-18T02:51:00;102952.81;;;-5.64;100.00
53514;BME280;39768;54.148;12.174;2022-12-18T03:00:15;102948.41;;;-5.65;100.00
53514;BME280;39768;54.148;12.174;2022-12-18T03:04:26;102958.00;;;-5.64;100.00
53514;BME280;39768;54.148;12.174;2022-12-18T03:08:36;102990.09;;;-5.52;100.00
53514;BME280;39768;54.148;12.174;2022-12-18T03:12:46;102996.84;;;-5.44;100.00
53514;BME280;39768;54.148;12.174;2022-12-18T03:16:49;102972.34;;;-5.47;100.00
53514;BME280;39768;54.148;12.174;2022-12-18T03:20:55;102975.75;;;-5.28;100.00
53514;BME280;39768;54.148;12.174;2022-12-18T03:25:02;102980.81;;;-5.29;100.00
53514;BME280;39768;54.148;12.174;2022-12-18T03:29:21;102990.75;;;-5.44;100.00
53514;BME280;39768;54.148;12.174;2022-12-18T03:33:29;102988.16;;;-5.44;100.00
53514;BME280;39768;54.148;12.174;2022-12-18T03:37:34;102995.97;;;-5.14;100.00
53514;BME280;39768;54.148;12.174;2022-12-18T03:41:43;103005.00;;;-5.29;100.00
53514;BME280;39768;54.148;12.174;2022-12-18T03:46:15;102998.41;;;-5.36;100.00
53514;BME280;39768;54.148;12.174;2022-12-18T03:50:28;103007.69;;;-5.48;100.00
53514;BME280;39768;54.148;12.174;2022-12-18T03:54:32;103012.84;;;-5.48;100.00
53514;BME280;39768;54.148;12.174;2022-12-18T03:58:43;103017.66;;;-5.42;100.00
53514;BME280;39768;54.148;12.174;2022-12-18T04:02:53;103034.66;;;-5.15;100.00
53514;BME280;39768;54.148;12.174;2022-12-18T04:07:03;103028.66;;;-5.55;100.00
53514;BME280;39768;54.148;12.174;2022-12-18T04:11:08;103031.75;;;-5.49;100.00
53514;BME280;39768;54.148;12.174;2022-12-18T04:15:10;103038.72;;;-5.58;100.00
53514;BME280;39768;54.148;12.174;2022-12-18T04:19:12;103033.13;;;-5.23;100.00
53514;BME280;39768;54.148;12.174;2022-12-18T04:23:16;103031.28;;;-5.74;100.00
53514;BME280;39768;54.148;12.174;2022-12-18T04:27:19;103034.66;;;-5.75;100.00
53514;BME280;39768;54.148;12.174;2022-12-18T04:31:23;103036.81;;;-5.89;100.00
53514;BME280;39768;54.148;12.174;2022-12-18T04:35:25;103034.69;;;-5.64;100.00
53514;BME280;39768;54.148;12.174;2022-12-18T04:39:26;103028.03;;;-5.81;100.00
53514;BME280;39768;54.148;12.174;2022-12-18T04:43:31;103024.16;;;-5.76;100.00
53514;BME280;39768;54.148;12.174;2022-12-18T04:47:34;103026.53;;;-5.69;100.00
53514;BME280;39768;54.148;12.174;2022-12-18T04:51:37;103014.13;;;-5.63;100.00
53514;BME280;39768;54.148;12.174;2022-12-18T04:55:38;103008.25;;;-5.81;100.00
53514;BME280;39768;54.148;12.174;2022-12-18T04:59:40;103010.13;;;-5.59;100.00
53514;BME280;39768;54.148;12.174;2022-12-18T05:03:42;103021.38;;;-5.59;100.00
53514;BME280;39768;54.148;12.174;2022-12-18T05:07:44;103028.00;;;-5.52;100.00
53514;BME280;39768;54.148;12.174;2022-12-18T05:11:46;103047.38;;;-5.57;100.00
53514;BME280;39768;54.148;12.174;2022-12-18T05:15:52;103049.41;;;-5.35;100.00
53514;BME280;39768;54.148;12.174;2022-12-18T05:19:53;103048.59;;;-5.44;100.00
53514;BME280;39768;54.148;12.174;2022-12-18T05:23:55;103059.19;;;-5.51;100.00
53514;BME280;39768;54.148;12.174;2022-12-18T05:27:56;103055.94;;;-5.48;100.00
53514;BME280;39768;54.148;12.174;2022-12-18T05:31:58;103040.75;;;-5.35;100.00
53514;BME280;39768;54.148;12.174;2022-12-18T05:36:01;103043.88;;;-5.58;100.00
53514;BME280;39768;54.148;12.174;2022-12-18T05:40:04;103053.50;;;-5.47;100.00
53514;BME280;39768;54.148;12.174;2022-12-18T05:44:05;103059.13;;;-5.61;100.00
53514;BME280;39768;54.148;12.174;2022-12-18T05:48:08;103060.00;;;-5.32;100.00
53514;BME280;39768;54.148;12.174;2022-12-18T05:52:13;103049.56;;;-5.13;100.00
53514;BME280;39768;54.148;12.174;2022-12-18T05:56:21;103049.09;;;-5.48;100.00
53514;BME280;39768;54.148;12.174;2022-12-18T06:00:23;103049.44;;;-5.14;100.00
53514;BME280;39768;54.148;12.174;2022-12-18T06:04:26;103058.47;;;-5.29;100.00
53514;BME280;39768;54.148;12.174;2022-12-18T06:08:28;103065.53;;;-5.47;100.00
53514;BME280;39768;54.148;12.174;2022-12-18T06:12:30;103069.06;;;-5.37;100.00
53514;BME280;39768;54.148;12.174;2022-12-18T06:16:32;103079.22;;;-5.58;100.00
53514;BME280;39768;54.148;12.174;2022-12-18T06:20:34;103074.94;;;-5.58;100.00
53514;BME280;39768;54.148;12.174;2022-12-18T06:24:37;103061.72;;;-5.61;100.00
53514;BME280;39768;54.148;12.174;2022-12-18T06:28:39;103069.41;;;-5.52;100.00
53514;BME280;39768;54.148;12.174;2022-12-18T06:32:41;103078.47;;;-5.47;100.00
53514;BME280;39768;54.148;12.174;2022-12-18T06:36:42;103073.69;;;-5.53;100.00
53514;BME280;39768;54.148;12.174;2022-12-18T06:40:44;103085.84;;;-5.52;100.00
53514;BME280;39768;54.148;12.174;2022-12-18T06:44:46;103092.06;;;-5.50;100.00
53514;BME280;39768;54.148;12.174;2022-12-18T06:48:51;103089.09;;;-5.44;100.00
53514;BME280;39768;54.148;12.174;2022-12-18T06:52:52;103085.88;;;-5.71;100.00
53514;BME280;39768;54.148;12.174;2022-12-18T06:56:55;103082.09;;;-5.45;100.00
53514;BME280;39768;54.148;12.174;2022-12-18T07:01:01;103081.44;;;-5.53;100.00
53514;BME280;39768;54.148;12.174;2022-12-18T07:05:03;103079.63;;;-5.83;100.00
53514;BME280;39768;54.148;12.174;2022-12-18T07:09:11;103068.22;;;-5.85;100.00
53514;BME280;39768;54.148;12.174;2022-12-18T07:13:12;103078.13;;;-5.71;100.00
53514;BME280;39768;54.148;12.174;2022-12-18T07:17:14;103077.31;;;-5.80;100.00
53514;BME280;39768;54.148;12.174;2022-12-18T07:21:18;103093.69;;;-5.60;100.00
53514;BME280;39768;54.148;12.174;2022-12-18T07:25:21;103103.44;;;-5.77;100.00
53514;BME280;39768;54.148;12.174;2022-12-18T07:29:22;103107.25;;;-5.63;100.00
53514;BME280;39768;54.148;12.174;2022-12-18T07:33:24;103106.09;;;-5.66;100.00
53514;BME280;39768;54.148;12.174;2022-12-18T07:37:26;103098.66;;;-5.53;100.00
53514;BME280;39768;54.148;12.174;2022-12-18T07:41:28;103120.00;;;-5.46;100.00
53514;BME280;39768;54.148;12.174;2022-12-18T07:45:30;103126.38;;;-5.71;100.00
53514;BME280;39768;54.148;12.174;2022-12-18T07:49:31;103122.16;;;-5.89;100.00
53514;BME280;39768;54.148;12.174;2022-12-18T07:53:33;103130.78;;;-5.70;100.00
53514;BME280;39768;54.148;12.174;2022-12-18T07:57:35;103140.66;;;-5.66;100.00
53514;BME280;39768;54.148;12.174;2022-12-18T08:01:57;103142.09;;;-5.78;100.00
53514;BME280;39768;54.148;12.174;2022-12-18T08:06:00;103143.03;;;-5.49;100.00
53514;BME280;39768;54.148;12.174;2022-12-18T08:10:02;103149.03;;;-5.40;100.00
53514;BME280;39768;54.148;12.174;2022-12-18T08:14:04;103137.47;;;-5.14;100.00
53514;BME280;39768;54.148;12.174;2022-12-18T08:18:05;103139.84;;;-5.07;100.00
53514;BME280;39768;54.148;12.174;2022-12-18T08:22:14;103135.56;;;-5.07;100.00
53514;BME280;39768;54.148;12.174;2022-12-18T08:26:16;103151.91;;;-4.98;100.00
53514;BME280;39768;54.148;12.174;2022-12-18T08:30:17;103151.91;;;-4.98;100.00
53514;BME280;39768;54.148;12.174;2022-12-18T08:34:19;103148.13;;;-5.01;100.00
53514;BME280;39768;54.148;12.174;2022-12-18T08:38:21;103155.19;;;-4.90;100.00
53514;BME280;39768;54.148;12.174;2022-12-18T08:42:24;103161.13;;;-4.91;100.00
53514;BME280;39768;54.148;12.174;2022-12-18T08:46:45;103166.97;;;-5.22;100.00
53514;BME280;39768;54.148;12.174;2022-12-18T08:50:56;103165.84;;;-4.67;100.00
53514;BME280;39768;54.148;12.174;2022-12-18T08:54:58;103164.66;;;-4.70;100.00
53514;BME280;39768;54.148;12.174;2022-12-18T08:59:00;103175.47;;;-4.94;100.00
53514;BME280;39768;54.148;12.174;2022-12-18T09:03:01;103179.78;;;-4.85;100.00
53514;BME280;39768;54.148;12.174;2022-12-18T09:07:03;103178.53;;;-4.59;100.00
53514;BME280;39768;54.148;12.174;2022-12-18T09:11:11;103174.75;;;-4.73;100.00
53514;BME280;39768;54.148;12.174;2022-12-18T09:15:13;103176.88;;;-4.49;100.00
53514;BME280;39768;54.148;12.174;2022-12-18T09:19:16;103180.25;;;-4.40;100.00
53514;BME280;39768;54.148;12.174;2022-12-18T09:23:17;103179.59;;;-4.47;100.00
53514;BME280;39768;54.148;12.174;2022-12-18T09:27:19;103170.53;;;-4.02;100.00
53514;BME280;39768;54.148;12.174;2022-12-18T09:31:22;103171.06;;;-4.16;100.00
53514;BME280;39768;54.148;12.174;2022-12-18T09:35:24;103177.66;;;-4.19;100.00
53514;BME280;39768;54.148;12.174;2022-12-18T09:39:26;103178.56;;;-4.39;100.00
53514;BME280;39768;54.148;12.174;2022-12-18T09:43:57;103184.38;;;-3.91;100.00
53514;BME280;39768;54.148;12.174;2022-12-18T09:48:01;103173.94;;;-3.71;100.00
53514;BME280;39768;54.148;12.174;2022-12-18T09:56:16;103169.59;;;-3.40;100.00
53514;BME280;39768;54.148;12.174;2022-12-18T10:00:21;103164.31;;;-3.41;100.00
53514;BME280;39768;54.148;12.174;2022-12-18T10:04:24;103164.66;;;-3.37;100.00
53514;BME280;39768;54.148;12.174;2022-12-18T10:08:33;103163.59;;;-3.07;100.00
53514;BME280;39768;54.148;12.174;2022-12-18T10:12:51;103161.34;;;-3.24;100.00
53514;BME280;39768;54.148;12.174;2022-12-18T10:26:03;103146.13;;;-3.20;100.00
53514;BME280;39768;54.148;12.174;2022-12-18T10:30:16;103153.16;;;-2.75;100.00
53514;BME280;39768;54.148;12.174;2022-12-18T10:34:18;103156.19;;;-2.80;100.00
53514;BME280;39768;54.148;12.174;2022-12-18T10:38:25;103163.59;;;-2.41;100.00
53514;BME280;39768;54.148;12.174;2022-12-18T10:42:28;103156.66;;;-2.53;100.00
53514;BME280;39768;54.148;12.174;2022-12-18T10:46:30;103158.28;;;-2.65;100.00
53514;BME280;39768;54.148;12.174;2022-12-18T10:50:33;103145.53;;;-2.28;100.00
53514;BME280;39768;54.148;12.174;2022-12-18T10:54:59;103156.59;;;-2.42;100.00
53514;BME280;39768;54.148;12.174;2022-12-18T10:59:05;103154.88;;;-2.42;100.00
53514;BME280;39768;54.148;12.174;2022-12-18T11:07:57;103148.75;;;-2.09;100.00
53514;BME280;39768;54.148;12.174;2022-12-18T11:12:04;103144.47;;;-2.42;100.00
53514;BME280;39768;54.148;12.174;2022-12-18T11:16:07;103141.75;;;-1.98;100.00
53514;BME280;39768;54.148;12.174;2022-12-18T11:20:30;103131.00;;;-1.91;100.00
53514;BME280;39768;54.148;12.174;2022-12-18T11:24:36;103135.28;;;-1.92;100.00
53514;BME280;39768;54.148;12.174;2022-12-18T11:28:41;103143.25;;;-1.67;100.00
53514;BME280;39768;54.148;12.174;2022-12-18T11:32:48;103146.25;;;-2.07;100.00
53514;BME280;39768;54.148;12.174;2022-12-18T11:36:51;103145.13;;;-2.23;100.00
53514;BME280;39768;54.148;12.174;2022-12-18T11:41:00;103145.00;;;-2.13;100.00
53514;BME280;39768;54.148;12.174;2022-12-18T11:49:17;103150.34;;;-2.11;100.00
53514;BME280;39768;54.148;12.174;2022-12-18T11:53:21;103151.31;;;-2.21;100.00
53514;BME280;39768;54.148;12.174;2022-12-18T12:01:49;103140.84;;;-1.99;100.00
53514;BME280;39768;54.148;12.174;2022-12-18T12:06:06;103152.22;;;-2.20;100.00
53514;BME280;39768;54.148;12.174;2022-12-18T12:10:25;103153.88;;;-1.99;100.00
53514;BME280;39768;54.148;12.174;2022-12-18T12:15:03;103145.13;;;-2.23;100.00
53514;BME280;39768;54.148;12.174;2022-12-18T12:19:38;103146.53;;;-1.81;100.00
53514;BME280;39768;54.148;12.174;2022-12-18T12:24:02;103150.81;;;-1.93;100.00
53514;BME280;39768;54.148;12.174;2022-12-18T12:28:15;103145.63;;;-1.82;100.00
53514;BME280;39768;54.148;12.174;2022-12-18T12:40:44;103128.06;;;-1.84;100.00
53514;BME280;39768;54.148;12.174;2022-12-18T12:45:04;103135.97;;;-1.48;100.00
53514;BME280;39768;54.148;12.174;2022-12-18T12:49:13;103138.59;;;-1.59;100.00
53514;BME280;39768;54.148;12.174;2022-12-18T12:53:26;103148.88;;;-1.96;100.00
53514;BME280;39768;54.148;12.174;2022-12-18T12:57:41;103150.13;;;-2.02;100.00
53514;BME280;39768;54.148;12.174;2022-12-18T13:02:06;103153.78;;;-2.22;100.00
53514;BME280;39768;54.148;12.174;2022-12-18T13:06:34;103141.09;;;-2.41;100.00
53514;BME280;39768;54.148;12.174;2022-12-18T13:10:44;103130.16;;;-2.25;100.00
53514;BME280;39768;54.148;12.174;2022-12-18T13:14:46;103131.34;;;-2.43;100.00
53514;BME280;39768;54.148;12.174;2022-12-18T13:18:52;103119.88;;;-2.24;100.00
53514;BME280;39768;54.148;12.174;2022-12-18T13:22:55;103123.06;;;-2.50;100.00
53514;BME280;39768;54.148;12.174;2022-12-18T13:26:57;103113.47;;;-2.51;100.00
53514;BME280;39768;54.148;12.174;2022-12-18T13:31:02;103099.47;;;-2.53;100.00
53514;BME280;39768;54.148;12.174;2022-12-18T13:39:31;103094.53;;;-2.71;100.00
53514;BME280;39768;54.148;12.174;2022-12-18T13:43:43;103081.94;;;-2.43;100.00
53514;BME280;39768;54.148;12.174;2022-12-18T13:47:45;103078.56;;;-2.42;100.00
53514;BME280;39768;54.148;12.174;2022-12-18T13:51:49;103075.75;;;-2.22;100.00
53514;BME280;39768;54.148;12.174;2022-12-18T13:55:52;103066.69;;;-1.92;100.00
53514;BME280;39768;54.148;12.174;2022-12-18T13:59:55;103064.00;;;-2.05;100.00
53514;BME280;39768;54.148;12.174;2022-12-18T14:04:20;103060.91;;;-2.35;100.00
53514;BME280;39768;54.148;12.174;2022-12-18T14:08:23;103068.63;;;-2.25;100.00
53514;BME280;39768;54.148;12.174;2022-12-18T14:12:29;103075.84;;;-2.32;100.00
53514;BME280;39768;54.148;12.174;2022-12-18T14:16:50;103070.66;;;-2.77;100.00
53514;BME280;39768;54.148;12.174;2022-12-18T14:20:55;103068.19;;;-2.64;100.00
53514;BME280;39768;54.148;12.174;2022-12-18T14:25:27;103062.16;;;-2.87;100.00
53514;BME280;39768;54.148;12.174;2022-12-18T14:29:30;103073.38;;;-2.64;100.00
53514;BME280;39768;54.148;12.174;2022-12-18T14:33:32;103048.31;;;-2.64;100.00
53514;BME280;39768;54.148;12.174;2022-12-18T14:37:33;103034.72;;;-2.71;100.00
53514;BME280;39768;54.148;12.174;2022-12-18T14:41:35;103027.97;;;-3.03;100.00
53514;BME280;39768;54.148;12.174;2022-12-18T14:45:43;103026.22;;;-2.80;100.00
53514;BME280;39768;54.148;12.174;2022-12-18T14:49:46;103017.97;;;-3.42;100.00
53514;BME280;39768;54.148;12.174;2022-12-18T14:53:53;103027.75;;;-3.28;100.00
53514;BME280;39768;54.148;12.174;2022-12-18T14:57:57;103032.81;;;-3.29;100.00
53514;BME280;39768;54.148;12.174;2022-12-18T15:02:25;103029.25;;;-3.20;100.00
53514;BME280;39768;54.148;12.174;2022-12-18T15:06:31;103050.44;;;-3.03;100.00
53514;BME280;39768;54.148;12.174;2022-12-18T15:10:34;103056.41;;;-3.04;100.00
53514;BME280;39768;54.148;12.174;2022-12-18T15:14:40;103066.88;;;-3.14;100.00
53514;BME280;39768;54.148;12.174;2022-12-18T15:18:43;103058.84;;;-3.17;100.00
53514;BME280;39768;54.148;12.174;2022-12-18T15:22:47;103062.56;;;-2.92;100.00
53514;BME280;39768;54.148;12.174;2022-12-18T15:26:48;103050.31;;;-3.05;100.00
53514;BME280;39768;54.148;12.174;2022-12-18T15:30:59;103039.75;;;-3.18;100.00
53514;BME280;39768;54.148;12.174;2022-12-18T15:39:12;103039.88;;;-3.16;100.00
53514;BME280;39768;54.148;12.174;2022-12-18T15:43:14;103057.03;;;-3.18;100.00
53514;BME280;39768;54.148;12.174;2022-12-18T15:47:34;103061.31;;;-3.19;100.00
53514;BME280;39768;54.148;12.174;2022-12-18T15:51:36;103058.78;;;-3.29;100.00
53514;BME280;39768;54.148;12.174;2022-12-18T15:55:38;103055.59;;;-3.15;100.00
53514;BME280;39768;54.148;12.174;2022-12-18T16:00:01;103052.78;;;-2.85;100.00
53514;BME280;39768;54.148;12.174;2022-12-18T16:04:05;103053.09;;;-2.80;100.00
53514;BME280;39768;54.148;12.174;2022-12-18T16:08:06;103043.72;;;-2.90;100.00
53514;BME280;39768;54.148;12.174;2022-12-18T16:12:19;103045.50;;;-3.00;100.00
53514;BME280;39768;54.148;12.174;2022-12-18T16:16:22;103052.69;;;-2.74;100.00
53514;BME280;39768;54.148;12.174;2022-12-18T16:20:24;103052.13;;;-3.04;100.00
53514;BME280;39768;54.148;12.174;2022-12-18T16:24:30;103043.25;;;-3.39;100.00
53514;BME280;39768;54.148;12.174;2022-12-18T16:28:32;103034.06;;;-3.24;100.00
53514;BME280;39768;54.148;12.174;2022-12-18T16:32:34;103029.59;;;-3.37;100.00
53514;BME280;39768;54.148;12.174;2022-12-18T16:36:35;103033.44;;;-3.43;100.00
53514;BME280;39768;54.148;12.174;2022-12-18T16:40:37;103041.09;;;-3.45;100.00
53514;BME280;39768;54.148;12.174;2022-12-18T16:45:00;103040.84;;;-3.48;100.00
53514;BME280;39768;54.148;12.174;2022-12-18T16:49:01;103024.41;;;-3.59;100.00
53514;BME280;39768;54.148;12.174;2022-12-18T16:53:03;103018.00;;;-3.52;100.00
53514;BME280;39768;54.148;12.174;2022-12-18T16:57:04;103021.13;;;-3.56;100.00
53514;BME280;39768;54.148;12.174;2022-12-18T17:01:10;103016.63;;;-3.37;100.00
53514;BME280;39768;54.148;12.174;2022-12-18T17:05:12;103006.19;;;-3.48;100.00
53514;BME280;39768;54.148;12.174;2022-12-18T17:09:14;103003.69;;;-3.91;100.00
53514;BME280;39768;54.148;12.174;2022-12-18T17:13:25;103006.41;;;-3.99;100.00
53514;BME280;39768;54.148;12.174;2022-12-18T17:17:27;103000.59;;;-3.43;100.00
53514;BME280;39768;54.148;12.174;2022-12-18T17:21:29;103000.75;;;-3.73;100.00
53514;BME280;39768;54.148;12.174;2022-12-18T17:25:31;102993.44;;;-3.67;100.00
53514;BME280;39768;54.148;12.174;2022-12-18T17:29:33;102987.22;;;-3.69;100.00
53514;BME280;39768;54.148;12.174;2022-12-18T17:33:34;102974.53;;;-3.76;100.00
53514;BME280;39768;54.148;12.174;2022-12-18T17:37:36;102966.06;;;-3.96;100.00
53514;BME280;39768;54.148;12.174;2022-12-18T17:41:37;102989.47;;;-3.84;100.00
53514;BME280;39768;54.148;12.174;2022-12-18T17:45:40;102987.56;;;-3.86;100.00
53514;BME280;39768;54.148;12.174;2022-12-18T17:49:41;102981.16;;;-3.80;100.00
53514;BME280;39768;54.148;12.174;2022-12-18T17:53:43;102975.69;;;-3.73;100.00
53514;BME280;39768;54.148;12.174;2022-12-18T17:57:45;102957.88;;;-3.68;100.00
53514;BME280;39768;54.148;12.174;2022-12-18T18:01:47;102960.53;;;-3.78;100.00
53514;BME280;39768;54.148;12.174;2022-12-18T18:05:54;102947.56;;;-3.78;100.00
53514;BME280;39768;54.148;12.174;2022-12-18T18:09:56;102953.13;;;-3.74;100.00
53514;BME280;39768;54.148;12.174;2022-12-18T18:13:58;102949.63;;;-3.74;100.00
53514;BME280;39768;54.148;12.174;2022-12-18T18:18:03;102948.88;;;-3.83;100.00
53514;BME280;39768;54.148;12.174;2022-12-18T18:22:04;102942.59;;;-3.97;100.00
53514;BME280;39768;54.148;12.174;2022-12-18T18:26:07;102930.00;;;-3.93;100.00
53514;BME280;39768;54.148;12.174;2022-12-18T18:30:10;102918.34;;;-3.98;100.00
53514;BME280;39768;54.148;12.174;2022-12-18T18:34:22;102916.13;;;-3.93;100.00
53514;BME280;39768;54.148;12.174;2022-12-18T18:38:24;102927.63;;;-3.68;100.00
53514;BME280;39768;54.148;12.174;2022-12-18T18:42:26;102927.94;;;-3.97;100.00
53514;BME280;39768;54.148;12.174;2022-12-18T18:46:27;102927.09;;;-3.85;100.00
53514;BME280;39768;54.148;12.174;2022-12-18T18:50:29;102920.88;;;-4.09;100.00
53514;BME280;39768;54.148;12.174;2022-12-18T18:54:30;102913.94;;;-3.99;100.00
53514;BME280;39768;54.148;12.174;2022-12-18T18:58:32;102907.38;;;-3.62;100.00
53514;BME280;39768;54.148;12.174;2022-12-18T19:02:34;102904.59;;;-3.75;100.00
53514;BME280;39768;54.148;12.174;2022-12-18T19:06:35;102888.44;;;-3.71;100.00
53514;BME280;39768;54.148;12.174;2022-12-18T19:10:39;102879.56;;;-3.74;100.00
53514;BME280;39768;54.148;12.174;2022-12-18T19:14:41;102877.38;;;-3.58;100.00
53514;BME280;39768;54.148;12.174;2022-12-18T19:18:43;102872.00;;;-3.38;100.00
53514;BME280;39768;54.148;12.174;2022-12-18T19:22:45;102871.81;;;-3.29;100.00
53514;BME280;39768;54.148;12.174;2022-12-18T19:26:56;102867.81;;;-3.36;100.00
53514;BME280;39768;54.148;12.174;2022-12-18T19:31:00;102860.53;;;-3.18;100.00
53514;BME280;39768;54.148;12.174;2022-12-18T19:35:02;102861.44;;;-3.51;100.00
53514;BME280;39768;54.148;12.174;2022-12-18T19:39:11;102855.06;;;-3.44;100.00
53514;BME280;39768;54.148;12.174;2022-12-18T19:43:13;102854.03;;;-3.46;100.00
53514;BME280;39768;54.148;12.174;2022-12-18T19:47:15;102855.13;;;-3.55;100.00
53514;BME280;39768;54.148;12.174;2022-12-18T19:51:21;102874.16;;;-3.32;100.00
53514;BME280;39768;54.148;12.174;2022-12-18T19:55:23;102872.50;;;-3.53;100.00
53514;BME280;39768;54.148;12.174;2022-12-18T19:59:24;102876.25;;;-3.50;100.00
53514;BME280;39768;54.148;12.174;2022-12-18T20:03:27;102863.97;;;-3.41;100.00
53514;BME280;39768;54.148;12.174;2022-12-18T20:07:33;102857.94;;;-3.51;100.00
53514;BME280;39768;54.148;12.174;2022-12-18T20:11:34;102862.88;;;-3.33;100.00
53514;BME280;39768;54.148;12.174;2022-12-18T20:15:42;102863.88;;;-3.31;100.00
53514;BME280;39768;54.148;12.174;2022-12-18T20:19:46;102856.03;;;-3.54;100.00
53514;BME280;39768;54.148;12.174;2022-12-18T20:23:47;102851.69;;;-3.65;100.00
53514;BME280;39768;54.148;12.174;2022-12-18T20:27:49;102844.13;;;-3.74;100.00
53514;BME280;39768;54.148;12.174;2022-12-18T20:31:51;102843.69;;;-3.68;100.00
53514;BME280;39768;54.148;12.174;2022-12-18T20:35:53;102819.78;;;-3.64;100.00
53514;BME280;39768;54.148;12.174;2022-12-18T20:39:55;102819.59;;;-3.44;100.00
53514;BME280;39768;54.148;12.174;2022-12-18T20:43:57;102817.69;;;-3.46;100.00
53514;BME280;39768;54.148;12.174;2022-12-18T20:47:59;102807.97;;;-3.37;100.00
53514;BME280;39768;54.148;12.174;2022-12-18T20:52:01;102787.28;;;-3.59;100.00
53514;BME280;39768;54.148;12.174;2022-12-18T20:56:08;102779.34;;;-3.27;100.00
53514;BME280;39768;54.148;12.174;2022-12-18T21:00:10;102783.81;;;-3.48;100.00
53514;BME280;39768;54.148;12.174;2022-12-18T21:04:13;102771.47;;;-3.62;100.00
53514;BME280;39768;54.148;12.174;2022-12-18T21:08:20;102765.88;;;-3.33;100.00
53514;BME280;39768;54.148;12.174;2022-12-18T21:12:22;102770.81;;;-3.48;100.00
53514;BME280;39768;54.148;12.174;2022-12-18T21:16:44;102768.47;;;-3.10;100.00
53514;BME280;39768;54.148;12.174;2022-12-18T21:20:46;102745.78;;;-3.24;100.00
53514;BME280;39768;54.148;12.174;2022-12-18T21:24:48;102746.78;;;-3.34;100.00
53514;BME280;39768;54.148;12.174;2022-12-18T21:28:54;102719.00;;;-3.23;100.00
53514;BME280;39768;54.148;12.174;2022-12-18T21:32:56;102714.41;;;-3.15;100.00
53514;BME280;39768;54.148;12.174;2022-12-18T21:36:58;102721.13;;;-2.94;100.00
53514;BME280;39768;54.148;12.174;2022-12-18T21:41:07;102716.72;;;-2.83;100.00
53514;BME280;39768;54.148;12.174;2022-12-18T21:45:09;102709.50;;;-3.11;100.00